• Join FlightAware (Why Join?)
  • Login
  • US Flag 
08:01PM EDT


 

Airport Tracker/Info


-or-


 

Live Flight TrackerFlight Track Log ✈ SWA378 ✈ 14-May-2013 ✈ KLAX - KATL

Flight Track Log - Related Links

Times and Time Zones

All times are in EDT time to prevent confusion due to time zone crossing. See the SWA378 flight status page for this flight to view local times or setup timezone preferences in your user account.

Time Position Orientation Groundspeed Altitude Reporting Facility
EDT Latitude Longitude Course Direction KTS MPH feet Rate Location/Type
01:25PM 33.9333 -118.4500 90° East 161 185 1,400  Level Southern California TRACON
01:26PM 33.9269 -118.4867 258° West 205 236 1,900 2,460 Climbing Los Angeles Center
01:27PM 33.8747 -118.5369 219° Southwest 257 296 5,300 3,480 Climbing Los Angeles Center
01:28PM 33.8031 -118.5589 194° South 261 300 9,100 2,700 Climbing Los Angeles Center
01:29PM 33.7297 -118.5328 164° South 283 326 11,000 2,040 Climbing Los Angeles Center
01:30PM 33.6756 -118.4478 127° Southeast 356 410 13,400 2,700 Climbing Los Angeles Center
01:31PM 33.6334 -118.2940 90° East  Level FlightAware Approximate
01:31PM 33.6444 -118.3097 105° East 373 429 16,700  Level Los Angeles Center
01:32PM 33.6442 -118.1842 90° East 386 444 18,800 2,100 Climbing Los Angeles Center
01:33PM 33.6444 -118.0300 90° East 392 451 21,500 1,980 Climbing Los Angeles Center
01:34PM 33.6436 -117.8928 90° East 412 474 23,000 1,080 Climbing Los Angeles Center
01:35PM 33.6431 -117.7169 90° East 450 518 23,800 1,200 Climbing Los Angeles Center
01:36PM 33.6425 -117.5614 90° East 465 535 25,500 1,560 Climbing Los Angeles Center
01:37PM 33.6406 -117.4036 91° East 472 543 27,100 1,560 Climbing Los Angeles Center
01:38PM 33.6394 -117.2447 90° East 477 549 28,800 1,440 Climbing Los Angeles Center
01:39PM 33.6381 -117.0842 91° East 481 554 30,100 1,800 Climbing Los Angeles Center
01:40PM 33.6542 -116.8967 84° East 479 551 32,600 1,560 Climbing Los Angeles Center
01:42PM 33.6826 -116.7539 76° East  Level FlightAware Approximate
01:43PM 33.7064 -116.5908 76° East 470 541 35,000  Level Los Angeles Center
01:44PM 33.7272 -116.4669 79° East 474 545 35,000  Level Los Angeles Center
01:45PM 33.7572 -116.2814 79° East 474 545 35,000  Level Los Angeles Center
01:46PM 33.7861 -116.1033 79° East 469 540 35,000  Level Los Angeles Center
01:47PM 33.8094 -115.9517 79° East 464 534 35,000  Level Los Angeles Center
01:48PM 33.8358 -115.7936 79° East 465 535 35,000 480 Level Los Angeles Center
01:49PM 33.8597 -115.6486 79° East 462 532 36,000 420 Climbing Los Angeles Center
01:50PM 33.8894 -115.4758 78° East 471 542 35,900 180 Descending Los Angeles Center
01:51PM 33.9131 -115.3247 79° East 464 534 36,400 480 Climbing Los Angeles Center
01:52PM 33.9361 -115.1747 79° East 459 528 36,900 240 Climbing Los Angeles Center
01:53PM 33.9594 -115.0236 79° East 459 528 36,900  Level Los Angeles Center
01:54PM 33.9839 -114.8681 79° East 459 528 37,000  Climbing Los Angeles Center
01:55PM 34.0108 -114.6919 79° East 457 526 36,900 -60 Descending Los Angeles Center
01:56PM 34.0333 -114.5394 80° East 462 532 36,900  Level Los Angeles Center
01:57PM 34.0558 -114.3906 80° East 456 525 36,900  Level Los Angeles Center
01:58PM 34.0700 -114.2989 79° East 457 526 36,900  Level Albuquerque Center
01:59PM 34.0922 -114.1439 80° East 451 519 37,000  Climbing Albuquerque Center
02:00PM 34.1136 -113.9947 80° East 451 519 37,000  Level Albuquerque Center
02:01PM 34.1397 -113.8217 80° East 450 518 37,000  Level Albuquerque Center
02:02PM 34.1600 -113.6756 80° East 446 513 37,000  Level Albuquerque Center
02:03PM 34.1806 -113.5222 81° East 448 516 37,000  Level Albuquerque Center
02:04PM 34.2011 -113.3761 80° East 444 511 37,000  Level Albuquerque Center
02:05PM 34.2219 -113.2289 80° East 444 511 37,000  Level Albuquerque Center
02:06PM 34.2417 -113.0839 81° East 441 507 37,000  Level Albuquerque Center
02:07PM 34.2661 -112.9097 80° East 439 505 37,000  Level Albuquerque Center
02:08PM 34.2853 -112.7653 81° East 436 502 37,000  Level Albuquerque Center
02:09PM 34.3044 -112.6211 81° East 434 499 37,000  Level Albuquerque Center
02:10PM 34.3242 -112.4778 81° East 434 499 37,000  Level Albuquerque Center
02:11PM 34.3414 -112.3347 82° East 431 496 37,000  Level Albuquerque Center
02:12PM 34.3608 -112.1922 81° East 429 494 37,000  Level Albuquerque Center
02:13PM 34.3789 -112.0497 81° East 428 493 37,000  Level Albuquerque Center
02:14PM 34.3967 -111.9058 81° East 429 494 37,000  Level Albuquerque Center
02:15PM 34.4197 -111.7347 81° East 427 491 37,000  Level Albuquerque Center
02:16PM 34.4372 -111.5931 81° East 426 490 37,000  Level Albuquerque Center
02:17PM 34.4547 -111.4517 81° East 423 487 37,000  Level Albuquerque Center
02:18PM 34.4719 -111.3097 82° East 424 488 37,000  Level Albuquerque Center
02:19PM 34.4894 -111.1692 81° East 423 487 37,000  Level Albuquerque Center
02:20PM 34.5050 -111.0272 82° East 424 488 37,000  Level Albuquerque Center
02:21PM 34.5236 -110.8847 81° East 427 491 37,000  Level Albuquerque Center
02:22PM 34.5436 -110.7200 82° East 424 488 37,000  Level Albuquerque Center
02:24PM 34.5600 -110.5853 82° East 423 487 37,000  Level Albuquerque Center
02:25PM 34.5783 -110.4281 82° East 423 487 37,000  Level Albuquerque Center
02:26PM 34.5933 -110.2928 82° East 423 487 37,000  Level Albuquerque Center
02:27PM 34.6114 -110.1364 82° East 421 484 37,000  Level Albuquerque Center
02:28PM 34.6247 -109.9981 83° East 428 493 37,000  Level Albuquerque Center
02:29PM 34.6403 -109.8647 82° East 423 487 37,000  Level Albuquerque Center
02:30PM 34.6572 -109.7083 82° East 419 482 37,000  Level Albuquerque Center
02:31PM 34.6719 -109.5767 82° East 415 478 37,000  Level Albuquerque Center
02:32PM 34.6881 -109.4200 83° East 416 479 37,000  Level Albuquerque Center
02:33PM 34.7025 -109.2872 82° East 416 479 37,000  Level Albuquerque Center
02:34PM 34.7186 -109.1306 83° East 418 481 37,000  Level Albuquerque Center
02:35PM 34.7328 -108.9986 83° East 414 476 37,000  Level Albuquerque Center
02:36PM 34.7483 -108.8414 83° East 419 482 37,000  Level Albuquerque Center
02:37PM 34.7625 -108.7094 83° East 415 478 37,000  Level Albuquerque Center
02:38PM 34.7753 -108.5764 83° East 414 476 37,000  Level Albuquerque Center
02:39PM 34.7903 -108.4211 83° East 419 482 37,000  Level Albuquerque Center
02:40PM 34.8044 -108.2825 83° East 416 479 37,000  Level Albuquerque Center
02:41PM 34.8167 -108.1456 84° East 410 472 37,000  Level Albuquerque Center
02:42PM 34.8306 -108.0083 83° East 410 472 37,000  Level Albuquerque Center
02:44PM 34.8586 -107.7036 84° East 412 474 37,000  Level Albuquerque Center
02:45PM 34.8700 -107.5647 84° East 413 475 37,000  Level Albuquerque Center
02:46PM 34.8833 -107.4269 83° East 411 473 37,000  Level Albuquerque Center
02:47PM 34.8950 -107.2878 84° East 414 476 37,000  Level Albuquerque Center
02:48PM 34.9097 -107.1367 83° East 420 483 37,000  Level Albuquerque Center
02:49PM 34.9211 -107.0031 84° East 417 480 37,000  Level Albuquerque Center
02:50PM 34.9333 -106.8486 84° East 413 475 37,000  Level Albuquerque Center
02:51PM 34.9425 -106.7175 85° East 406 467 37,000  Level Albuquerque Center
02:52PM 34.9561 -106.5589 84° East 418 481 37,000  Level Albuquerque Center
02:53PM 34.9664 -106.4267 85° East 426 490 37,000  Level Albuquerque Center
02:54PM 34.9778 -106.2869 84° East 419 482 37,000  Level Albuquerque Center
02:55PM 34.9889 -106.1461 84° East 419 482 37,000  Level Albuquerque Center
02:56PM 35.0014 -105.9761 85° East 420 483 37,000  Level Albuquerque Center
02:57PM 35.0122 -105.8464 84° East 420 483 37,000  Level Albuquerque Center
02:58PM 35.0258 -105.6783 84° East 421 484 37,000  Level Albuquerque Center
03:00PM 35.0350 -105.5331 86° East 425 489 37,000  Level Albuquerque Center
03:01PM 35.0456 -105.3872 85° East 427 491 37,000  Level Albuquerque Center
03:02PM 35.0567 -105.2406 85° East 429 494 37,000  Level Albuquerque Center
03:03PM 35.0672 -105.0928 85° East 433 498 37,000  Level Albuquerque Center
03:04PM 35.0778 -104.9461 85° East 431 496 37,000  Level Albuquerque Center
03:05PM 35.0881 -104.7994 85° East 430 495 37,000  Level Albuquerque Center
03:06PM 35.0981 -104.6522 85° East 431 496 37,000  Level Albuquerque Center
03:07PM 35.1117 -104.4847 84° East 431 496 37,000  Level Albuquerque Center
03:08PM 35.1197 -104.3375 86° East 434 499 37,000  Level Albuquerque Center
03:09PM 35.1292 -104.1917 85° East 432 497 37,000  Level Albuquerque Center
03:10PM 35.1381 -104.0464 86° East 431 496 37,000  Level Albuquerque Center
03:11PM 35.1456 -103.8997 86° East 432 497 37,000  Level Albuquerque Center
03:12PM 35.1547 -103.7525 86° East 433 498 37,000  Level Albuquerque Center
03:13PM 35.1653 -103.5806 86° East 432 497 37,000  Level Albuquerque Center
03:14PM 35.1739 -103.4311 86° East 436 502 37,000  Level Albuquerque Center
03:15PM 35.1825 -103.2814 86° East 438 504 37,000  Level Albuquerque Center
03:16PM 35.1908 -103.1292 86° East 443 510 37,000  Level Albuquerque Center
03:17PM 35.1978 -102.9769 87° East 446 513 37,000  Level Albuquerque Center
03:18PM 35.2056 -102.8283 86° East 449 517 37,000  Level Albuquerque Center
03:19PM 35.2131 -102.6753 87° East 451 519 37,000  Level Albuquerque Center
03:20PM 35.2200 -102.5244 87° East 447 514 37,000  Level Albuquerque Center
03:21PM 35.2294 -102.3397 86° East 453 521 37,000  Level Albuquerque Center
03:22PM 35.2364 -102.1881 87° East 449 517 37,000  Level Albuquerque Center
03:23PM 35.2428 -102.0339 87° East 452 520 37,000  Level Albuquerque Center
03:24PM 35.2514 -101.8692 86° East 456 525 37,000  Level Albuquerque Center
03:25PM 35.2592 -101.7122 86° East 459 528 37,000  Level Albuquerque Center
03:26PM 35.2658 -101.5639 87° East 458 527 37,000  Level Albuquerque Center
03:27PM 35.2703 -101.4064 88° East 462 532 37,000  Level Albuquerque Center
03:28PM 35.2758 -101.2375 88° East 465 535 37,000  Level Albuquerque Center
03:29PM 35.2819 -101.0800 87° East 465 535 37,000  Level Albuquerque Center
03:30PM 35.2875 -100.9214 87° East 466 536 37,000  Level Albuquerque Center
03:31PM 35.2944 -100.7308 87° East 468 539 37,000  Level Albuquerque Center
03:32PM 35.2986 -100.5794 88° East 470 541 37,000  Level Albuquerque Center
03:33PM 35.3056 -100.4175 87° East 475 547 37,000  Level Albuquerque Center
03:34PM 35.3103 -100.2547 88° East 478 550 37,000  Level Albuquerque Center
03:36PM 35.3133 -100.0894 89° East 482 555 37,000  Level Albuquerque Center
03:37PM 35.3183 -99.9256 88° East 483 556 37,000  Level Albuquerque Center
03:38PM 35.3239 -99.7283 88° East 485 558 37,000  Level Albuquerque Center
03:39PM 35.3283 -99.5636 88° East 484 557 37,000  Level Albuquerque Center
03:40PM 35.3311 -99.3986 89° East 486 559 37,000  Level Albuquerque Center
03:40PM 35.3308 -99.3322 90° East 480 552 37,000  Level Fort Worth Center
03:41PM 35.3356 -99.1669 88° East 480 552 37,000  Level Fort Worth Center
03:42PM 35.3397 -99.0017 88° East 480 552 37,000  Level Fort Worth Center
03:43PM 35.3417 -98.8361 89° East 480 552 37,000  Level Fort Worth Center
03:44PM 35.3456 -98.6708 88° East 475 547 37,100  Climbing Fort Worth Center
03:45PM 35.3472 -98.5056 89° East 475 547 37,000 -60 Descending Fort Worth Center
03:46PM 35.3508 -98.3272 89° East 475 547 37,000  Level Fort Worth Center
03:47PM 35.3517 -98.1644 90° East 475 547 37,000  Level Fort Worth Center
03:48PM 35.3547 -97.9989 89° East 475 547 37,000  Level Fort Worth Center
03:49PM 35.3556 -97.8311 90° East 475 547 37,000  Level Fort Worth Center
03:50PM 35.3558 -97.6681 90° East 475 547 37,000  Level Fort Worth Center
03:51PM 35.3561 -97.5383 90° East 475 547 37,000  Level Fort Worth Center
03:52PM 35.3686 -97.3422 85° East 493 567 37,000  Level Fort Worth Center
03:53PM 35.3642 -97.1564 92° East 493 567 37,000  Level Fort Worth Center
03:54PM 35.3681 -96.9961 88° East 485 558 37,000  Level Fort Worth Center
03:55PM 35.3717 -96.8331 88° East 480 552 37,000  Level Fort Worth Center
03:56PM 35.3747 -96.6700 89° East 474 545 37,000  Level Fort Worth Center
03:57PM 35.3758 -96.5047 89° East 479 551 37,000  Level Fort Worth Center
03:58PM 35.3786 -96.3417 89° East 479 551 37,000  Level Fort Worth Center
03:59PM 35.3814 -96.1786 89° East 479 551 37,000  Level Fort Worth Center
04:00PM 35.3817 -96.0158 90° East 479 551 37,000  Level Fort Worth Center
04:01PM 35.3861 -95.8528 88° East 479 551 37,000  Level Fort Worth Center
04:03PM 35.3889 -95.5653 89° East 465 535 37,000  Level Memphis Center
04:04PM 35.3872 -95.4019 91° East 470 541 37,000  Level Memphis Center
04:05PM 35.3875 -95.2392 90° East 476 548 37,000  Level Memphis Center
04:06PM 35.3875 -95.0761 90° East 476 548 37,000  Level Memphis Center
04:07PM 35.3872 -94.9106 90° East 481 554 37,000  Level Memphis Center
04:08PM 35.3869 -94.7450 90° East 481 554 37,000  Level Memphis Center
04:09PM 35.3886 -94.5822 89° East 481 554 37,000  Level Memphis Center
04:10PM 35.3856 -94.4164 91° East 481 554 37,000  Level Memphis Center
04:11PM 35.3883 -94.2639 89° East 486 559 37,000  Level Memphis Center
04:12PM 35.3747 -94.1028 96° East 486 559 37,000  Level Memphis Center
04:13PM 35.3647 -93.9444 94° East 480 552 37,000  Level Memphis Center
04:14PM 35.3525 -93.7811 95° East 480 552 37,000  Level Memphis Center
04:15PM 35.3403 -93.6175 95° East 480 552 37,000  Level Memphis Center
04:16PM 35.3300 -93.4544 94° East 480 552 37,000  Level Memphis Center
04:17PM 35.3169 -93.2961 96° East 480 552 37,000  Level Memphis Center
04:18PM 35.3039 -93.1378 96° East 474 545 37,000  Level Memphis Center
04:19PM 35.2928 -92.9772 95° East 474 545 37,000  Level Memphis Center
04:20PM 35.2794 -92.8114 96° East 479 551 37,000  Level Memphis Center
04:21PM 35.2619 -92.6356 97° East 483 556 37,000  Level Memphis Center
04:22PM 35.2500 -92.4803 95° East 477 549 37,000  Level Memphis Center
04:23PM 35.2358 -92.3272 96° East 465 535 37,000  Level Memphis Center
04:24PM 35.2236 -92.1719 95° East 465 535 37,000  Level Memphis Center
04:25PM 35.2111 -92.0192 96° East 459 528 37,000  Level Memphis Center
04:26PM 35.1986 -91.8689 96° East 453 521 37,000  Level Memphis Center
04:28PM 35.1706 -91.5686 96° East 448 516 37,000  Level Memphis Center
04:29PM 35.1572 -91.4161 96° East 448 516 37,000  Level Memphis Center
04:30PM 35.1458 -91.2739 96° East 438 504 37,000  Level Memphis Center
04:31PM 35.1303 -91.1264 97° East 438 504 37,000  Level Memphis Center
04:32PM 35.1164 -90.9764 96° East 432 497 37,000  Level Memphis Center
04:33PM 35.1025 -90.8317 97° East 439 505 37,000  Level Memphis Center
04:34PM 35.0883 -90.6819 97° East 439 505 37,000  Level Memphis Center
04:35PM 35.0739 -90.5525 98° East 439 505 37,000  Level Memphis Center
04:36PM 35.0594 -90.4053 97° East 444 511 37,000  Level Memphis Center
04:37PM 35.0447 -90.2556 97° East 444 511 37,000  Level Memphis Center
04:38PM 35.0300 -90.1036 97° East 444 511 37,000  Level Memphis Center
04:39PM 35.0150 -89.9564 97° East 444 511 37,000  Level Memphis Center
04:40PM 34.9956 -89.7892 98° East 444 511 37,000  Level Memphis Center
04:41PM 34.9697 -89.6297 101° East 467 537 37,000  Level Memphis Center
04:42PM 34.9436 -89.4781 102° East 460 529 37,000  Level Memphis Center
04:43PM 34.9197 -89.3314 101° East 454 522 37,000  Level Memphis Center
04:44PM 34.8997 -89.1975 100° East 449 517 37,000  Level Memphis Center
04:45PM 34.8753 -89.0483 101° East 449 517 37,000  Level Memphis Center
04:46PM 34.8528 -88.8994 100° East 449 517 37,000  Level Memphis Center
04:47PM 34.8300 -88.7481 100° East 449 517 37,000  Level Memphis Center
04:48PM 34.8069 -88.5992 101° East 449 517 37,000  Level Memphis Center
04:49PM 34.7819 -88.4556 102° East 446 513 37,000  Level Memphis Center
04:50PM 34.7608 -88.3069 100° East 439 505 37,000  Level Memphis Center
04:51PM 34.7308 -88.1333 102° East 466 536 37,000  Level Memphis Center
04:52PM 34.7092 -87.9822 100° East 473 544 37,000  Level Memphis Center
04:53PM 34.6831 -87.8289 102° East 463 533 37,000  Level Memphis Center
04:54PM 34.6569 -87.6758 102° East 463 533 37,000 -1,440 Level Memphis Center
04:55PM 34.6219 -87.4364 100° East 455 524 33,300 -1,560 Descending Atlanta Center
04:56PM 34.5928 -87.2786 103° East 455 524 33,000 -180 Descending Atlanta Center
04:57PM 34.5611 -87.1286 104° East 461 531 33,000  Level Atlanta Center
04:58PM 34.5317 -86.9711 103° East 461 531 33,000  Level Atlanta Center
04:59PM 34.5017 -86.8164 103° East 461 531 33,000 -360 Level Atlanta Center
05:00PM 34.4717 -86.6617 103° East 461 531 32,300 -540 Descending Atlanta Center
05:01PM 34.4394 -86.5044 104° East 467 537 32,000 -420 Descending Atlanta Center
05:02PM 34.4114 -86.3475 102° East 472 543 31,500 -780 Descending Atlanta Center
05:03PM 34.3744 -86.1956 106° East 472 543 30,500 -1,020 Descending Atlanta Center
05:04PM 34.3353 -86.0436 107° East 477 549 29,500 -960 Descending Atlanta Center
05:05PM 34.2981 -85.8819 106° East 477 549 28,600 -960 Descending Atlanta Center
05:06PM 34.2667 -85.7481 106° East 471 542 27,600 -1,860 Descending Atlanta Center
05:07PM 34.2289 -85.5992 107° East 466 536 24,900 -2,760 Descending Atlanta Center
05:08PM 34.1953 -85.4553 106° East 454 522 22,100 -2,700 Descending Atlanta Center
05:09PM 34.1614 -85.3142 106° East 439 505 19,500 -2,520 Descending Atlanta Center
05:10PM 34.1231 -85.1656 107° East 430 495 17,100 -2,700 Descending Atlanta Center
05:11PM 34.0886 -85.0347 108° East 423 487 14,200 -1,920 Descending Atlanta Center
05:12PM 34.0164 -84.9286 129° Southeast 405 466 13,300 -960 Descending Atlanta Center
05:13PM 33.9400 -84.8350 135° Southeast 400 460 12,300 -660 Descending Atlanta Center
05:14PM 33.8653 -84.7394 133° Southeast 395 455 12,000 -240 Descending Atlanta Center
05:15PM 33.8167 -84.6833 136° Southeast 390 449 12,000  Level Atlanta TRACON
05:16PM 33.7500 -84.5833 129° Southeast 373 429 12,000 -180 Level Atlanta TRACON
05:17PM 33.7333 -84.4833 101° East 287 330 11,700 -1,320 Descending Atlanta TRACON
05:18PM 33.7333 -84.4000 90° East 270 311 9,300 -2,520 Descending Atlanta TRACON
05:19PM 33.7333 -84.3167 90° East 258 297 6,700 -2,280 Descending Atlanta TRACON
05:20PM 33.7333 -84.2333 90° East 240 276 5,000 -1,440 Descending Atlanta TRACON
05:21PM 33.7000 -84.2167 157° South 204 235 4,000 -900 Descending Atlanta TRACON
05:22PM 33.6667 -84.2667 231° Southwest 183 211 3,200 -720 Descending Atlanta TRACON
05:23PM 33.6500 -84.3167 248° West 176 203 2,600 -840 Descending Atlanta TRACON
05:24PM 33.6500 -84.3833 270° West 145 167 1,600 -1,020 Descending Atlanta TRACON
05:26PM 33.6333 -84.4167 North  Level FlightAware Approximate
05:33PM 33.6367 -84.4279 North  Level Estimated